Time;durP1;ratioP1;P1;durP2;ratioP2;P2;SDS_P1;SDS_P2;PMS_P1;PMS_P2;Temp;Humidity;BMP_temperature;BMP_pressure;BME280_temperature;BME280_humidity;BME280_pressure;Samples;Min_cycle;Max_cycle;Signal;HPM_P1;HPM_P2
2024/03/02 11:38:55;;;;;;;22.60;7.40;;;;;;;6.95;55.46;99643.48;80465;1301;3013534;-74
2024/03/02 11:41:21;;;;;;;21.00;7.10;;;;;;;7.04;55.08;99647.65;79274;1300;3013238;-75
2024/03/02 11:43:49;;;;;;;20.90;7.90;;;;;;;6.81;55.29;99652.25;79368;1298;3011923;-74
2024/03/02 11:46:17;;;;;;;18.00;7.20;;;;;;;6.89;55.20;99655.94;78311;1311;3051233;-72
2024/03/02 11:48:43;;;;;;;21.40;6.90;;;;;;;6.98;54.95;99646.69;79480;1302;3014924;-78
2024/03/02 11:51:11;;;;;;;19.40;7.50;;;;;;;7.04;54.55;99645.73;79227;1299;3012947;-72
2024/03/02 11:53:40;;;;;;;24.30;7.80;;;;;;;6.99;55.16;99647.49;78144;1298;3048100;-78
2024/03/02 11:56:09;;;;;;;18.50;6.90;;;;;;;6.70;55.07;99648.73;79507;1295;3016023;-79
2024/03/02 11:58:38;;;;;;;15.70;7.20;;;;;;;6.69;55.30;99651.02;79018;1300;3011422;-78
2024/03/02 12:01:04;;;;;;;17.70;7.10;;;;;;;6.60;55.31;99649.84;79860;1301;3013618;-76
2024/03/02 12:03:31;;;;;;;25.70;8.20;;;;;;;6.66;55.45;99646.98;79721;1301;3013553;-75
2024/03/02 12:05:59;;;;;;;21.00;8.10;;;;;;;6.51;55.34;99645.33;78210;1304;3027176;-73
2024/03/02 12:08:25;;;;;;;19.10;7.60;;;;;;;6.15;56.37;99647.09;79590;1302;3013032;-76
2024/03/02 12:10:57;;;;;;;26.80;7.90;;;;;;;5.97;56.96;99655.12;79677;1301;3012186;-77
2024/03/02 12:13:25;;;;;;;17.30;8.00;;;;;;;5.94;57.01;99654.02;78414;1301;3049513;-78
2024/03/02 12:15:56;;;;;;;18.70;9.10;;;;;;;5.96;56.65;99646.98;79901;1301;3013587;-77
2024/03/02 12:18:24;;;;;;;22.00;9.00;;;;;;;5.86;57.00;99652.55;78327;1301;3069483;-75
2024/03/02 12:20:57;;;;;;;24.50;9.70;;;;;;;5.89;56.63;99658.54;79537;1301;3018221;-77
2024/03/02 12:23:25;;;;;;;25.00;9.50;;;;;;;5.70;57.01;99659.75;78735;1300;3049264;-74
2024/03/02 12:25:52;;;;;;;21.80;9.30;;;;;;;5.63;57.55;99660.20;79594;1309;3013085;-77
2024/03/02 12:28:19;;;;;;;19.50;9.50;;;;;;;5.41;58.09;99654.73;79569;1302;3011538;-78
2024/03/02 12:30:47;;;;;;;16.90;9.20;;;;;;;5.04;59.37;99653.42;78362;1304;3026386;-78
2024/03/02 12:33:14;;;;;;;19.60;9.70;;;;;;;4.60;60.61;99655.09;80089;1302;3012908;-76
2024/03/02 12:35:42;;;;;;;21.70;10.00;;;;;;;4.67;61.04;99655.90;79560;1296;3012833;-79
2024/03/02 12:38:10;;;;;;;22.80;9.20;;;;;;;4.81;60.40;99656.30;78189;1298;3048883;-76
2024/03/02 12:40:37;;;;;;;19.50;9.60;;;;;;;4.69;60.69;99667.13;79488;1299;3013519;-76
2024/03/02 12:43:05;;;;;;;26.60;9.60;;;;;;;4.24;62.06;99661.09;79429;1298;3012917;-77
2024/03/02 12:45:35;;;;;;;25.20;10.30;;;;;;;4.03;63.04;99662.45;78414;1300;3053096;-75
2024/03/02 12:48:02;;;;;;;19.40;9.80;;;;;;;4.02;63.51;99661.61;79626;1298;3013419;-79
2024/03/02 12:50:31;;;;;;;25.80;9.40;;;;;;;4.20;63.19;99663.31;79129;1301;3011824;-80
2024/03/02 12:52:58;;;;;;;20.10;10.00;;;;;;;4.21;63.01;99669.52;79571;1299;3013457;-78
2024/03/02 12:55:24;;;;;;;20.60;10.00;;;;;;;4.14;63.32;99673.91;79581;1301;3011786;-78
2024/03/02 12:57:52;;;;;;;20.80;9.20;;;;;;;4.11;63.42;99676.77;78184;1304;3026441;-77
2024/03/02 13:00:20;;;;;;;22.90;10.00;;;;;;;4.04;63.39;99672.66;79431;1311;3012715;-76
2024/03/02 13:02:47;;;;;;;24.80;10.30;;;;;;;3.95;63.87;99672.40;79345;1301;3011680;-73
2024/03/02 13:05:15;;;;;;;25.20;9.60;;;;;;;3.87;64.18;99674.00;78186;1298;3050802;-74
2024/03/02 13:07:42;;;;;;;25.10;10.20;;;;;;;3.89;64.28;99675.54;79497;1297;3013197;-75
2024/03/02 13:10:08;;;;;;;23.70;10.60;;;;;;;3.64;65.30;99670.02;79442;1301;3013215;-77
2024/03/02 13:12:37;;;;;;;20.00;10.30;;;;;;;3.62;65.10;99675.45;78984;1301;3027890;-74
2024/03/02 13:15:05;;;;;;;21.10;10.70;;;;;;;3.46;65.66;99673.11;79928;1301;3013488;-78
2024/03/02 13:17:34;;;;;;;20.10;9.90;;;;;;;3.35;65.94;99681.05;79693;1302;3011746;-79
2024/03/02 13:20:04;;;;;;;20.70;9.90;;;;;;;3.38;66.49;99676.64;78372;1301;3050881;-74
2024/03/02 13:22:31;;;;;;;26.90;11.00;;;;;;;3.30;66.72;99680.31;79827;1297;3011540;-80
2024/03/02 13:24:59;;;;;;;22.30;10.40;;;;;;;3.25;67.08;99684.60;79446;1298;3011630;-75
2024/03/02 13:27:27;;;;;;;25.20;10.10;;;;;;;3.25;67.11;99675.79;78205;1301;3051105;-75
2024/03/02 13:29:54;;;;;;;26.40;10.70;;;;;;;3.16;67.68;99676.70;79634;1301;3013405;-77
2024/03/02 13:32:23;;;;;;;25.80;10.80;;;;;;;3.08;67.79;99674.33;79522;1301;3013263;-78
2024/03/02 13:34:51;;;;;;;25.00;12.20;;;;;;;3.09;67.82;99672.58;78164;1301;3050597;-74
2024/03/02 13:37:18;;;;;;;26.00;11.30;;;;;;;3.08;67.60;99672.94;79464;1301;3014002;-78
2024/03/02 13:39:44;;;;;;;29.20;12.00;;;;;;;2.87;68.44;99674.52;79398;1296;3011734;-77
2024/03/02 13:42:14;;;;;;;26.90;11.00;;;;;;;2.89;68.53;99672.93;78276;1301;3026941;-77
2024/03/02 13:44:45;;;;;;;25.40;10.60;;;;;;;2.78;69.10;99671.46;79638;1300;3013072;-76
2024/03/02 13:47:14;;;;;;;24.40;11.30;;;;;;;2.83;69.20;99670.66;78944;1301;3052092;-77
2024/03/02 13:49:46;;;;;;;24.10;10.80;;;;;;;2.98;68.73;99666.61;79617;1300;3013893;-77
2024/03/02 13:52:15;;;;;;;21.90;10.40;;;;;;;3.03;68.60;99666.31;78247;1300;3056086;-73
2024/03/02 13:54:43;;;;;;;25.30;10.20;;;;;;;3.05;68.35;99662.62;79587;1298;3016285;-73
2024/03/02 13:57:10;;;;;;;23.10;10.90;;;;;;;3.11;68.09;99660.58;79636;1302;3011507;-79
2024/03/02 13:59:38;;;;;;;23.30;11.10;;;;;;;3.09;68.36;99655.08;78557;1298;3051920;-73
2024/03/02 14:02:05;;;;;;;21.40;11.80;;;;;;;3.06;68.40;99651.88;79563;1300;3013249;-77
2024/03/02 14:04:34;;;;;;;24.70;11.40;;;;;;;3.05;68.29;99649.64;79608;1298;3012792;-76
2024/03/02 14:07:03;;;;;;;23.30;11.80;;;;;;;2.95;68.75;99656.16;78116;1296;3057609;-75
2024/03/02 14:09:30;;;;;;;25.20;12.20;;;;;;;2.87;69.47;99663.27;79775;1296;3012902;-77
2024/03/02 14:11:56;;;;;;;23.20;12.20;;;;;;;2.82;69.63;99663.74;80068;1298;3013468;-76
2024/03/02 14:14:24;;;;;;;25.20;11.70;;;;;;;2.74;70.29;99665.68;78779;1301;3053053;-77
2024/03/02 14:16:51;;;;;;;25.40;12.00;;;;;;;2.83;70.15;99663.89;79721;1300;3013682;-73
2024/03/02 14:19:17;;;;;;;23.30;12.30;;;;;;;2.79;70.29;99664.86;79474;1301;3011589;-77
2024/03/02 14:21:47;;;;;;;26.50;12.20;;;;;;;2.81;70.35;99663.95;78367;1301;3026273;-78
2024/03/02 14:24:13;;;;;;;24.90;12.70;;;;;;;2.79;70.57;99664.34;79520;1299;3011642;-78
2024/03/02 14:26:40;;;;;;;21.80;12.70;;;;;;;2.66;70.95;99661.04;79788;1296;3011836;-75
2024/03/02 14:29:08;;;;;;;33.50;13.80;;;;;;;2.69;70.85;99656.64;78421;1301;3051787;-77
2024/03/02 14:31:35;;;;;;;25.30;13.40;;;;;;;2.71;70.78;99656.26;79470;1296;3012994;-76
2024/03/02 14:34:01;;;;;;;23.40;13.70;;;;;;;2.66;70.79;99652.92;79489;1302;3011599;-76
2024/03/02 14:36:30;;;;;;;25.00;13.00;;;;;;;2.68;70.60;99655.48;78370;1301;3026753;-76
2024/03/02 14:38:56;;;;;;;30.00;14.70;;;;;;;2.74;70.69;99651.84;79746;1299;3012730;-75
2024/03/02 14:41:24;;;;;;;36.40;14.50;;;;;;;2.84;70.53;99653.68;79787;1298;3011838;-77
2024/03/02 14:43:52;;;;;;;28.80;14.60;;;;;;;2.85;70.38;99653.46;78269;1301;3052203;-78
2024/03/02 14:46:18;;;;;;;29.00;13.30;;;;;;;2.97;70.02;99651.60;79677;1298;3013054;-76
2024/03/02 14:48:45;;;;;;;28.90;13.00;;;;;;;3.05;69.45;99655.72;79473;1298;3011690;-73
2024/03/02 14:51:13;;;;;;;21.60;12.30;;;;;;;3.07;69.21;99657.55;78393;1299;3056436;-72
2024/03/02 14:53:42;;;;;;;30.40;12.50;;;;;;;3.08;69.46;99650.96;79516;1299;3012959;-71
2024/03/02 14:56:08;;;;;;;28.20;12.90;;;;;;;3.07;69.25;99645.43;79513;1299;3013511;-75
2024/03/02 14:58:36;;;;;;;26.60;13.10;;;;;;;3.18;69.05;99642.39;78210;1301;3052438;-76
2024/03/02 15:01:04;;;;;;;27.00;13.60;;;;;;;3.21;68.79;99640.39;79521;1296;3013676;-77
2024/03/02 15:03:31;;;;;;;24.70;13.10;;;;;;;3.27;68.72;99640.05;79422;1298;3011632;-73
2024/03/02 15:05:59;;;;;;;28.10;13.50;;;;;;;3.27;68.60;99636.25;78300;1300;3056237;-75
2024/03/02 15:08:26;;;;;;;25.90;13.20;;;;;;;3.27;68.57;99632.46;79659;1296;3012894;-75
2024/03/02 15:10:55;;;;;;;28.50;14.30;;;;;;;3.23;68.58;99630.31;79525;1298;3013943;-73
2024/03/02 15:13:24;;;;;;;27.70;13.70;;;;;;;3.23;68.60;99628.91;78232;1303;3051359;-74
2024/03/02 15:15:51;;;;;;;25.80;14.40;;;;;;;3.23;68.41;99625.81;79487;1301;3013100;-75
2024/03/02 15:18:18;;;;;;;31.80;14.90;;;;;;;3.09;68.71;99630.34;79526;1301;3011669;-74
2024/03/02 15:20:46;;;;;;;26.50;13.50;;;;;;;2.97;69.09;99625.65;78263;1298;3056014;-76
2024/03/02 15:23:12;;;;;;;24.50;13.60;;;;;;;2.90;69.65;99622.88;79550;1298;3012370;-77
2024/03/02 15:25:39;;;;;;;31.20;14.50;;;;;;;2.85;69.55;99622.65;79505;1301;3011810;-75
2024/03/02 15:28:07;;;;;;;23.00;12.60;;;;;;;2.77;69.81;99614.39;78313;1300;3026088;-75
2024/03/02 15:30:34;;;;;;;23.10;13.60;;;;;;;2.73;69.80;99625.91;79523;1300;3013096;-74
2024/03/02 15:33:00;;;;;;;26.40;13.20;;;;;;;2.77;70.09;99622.88;79501;1298;3011525;-74
2024/03/02 15:35:28;;;;;;;28.00;13.10;;;;;;;2.79;69.89;99620.93;78384;1296;3028863;-76
2024/03/02 15:37:55;;;;;;;25.10;13.50;;;;;;;2.74;70.16;99621.23;79560;1301;3012869;-76
2024/03/02 15:40:21;;;;;;;30.80;13.30;;;;;;;2.77;69.82;99614.39;79399;1298;3011501;-74
2024/03/02 15:42:49;;;;;;;21.80;11.90;;;;;;;2.80;69.83;99612.10;78235;1297;3026917;-76
2024/03/02 15:45:17;;;;;;;21.30;12.40;;;;;;;2.83;69.46;99613.71;79540;1298;3014089;-75
2024/03/02 15:47:44;;;;;;;26.50;12.60;;;;;;;2.83;69.24;99614.59;79339;1298;3013108;-76
2024/03/02 15:50:12;;;;;;;24.00;12.30;;;;;;;2.78;69.22;99617.31;78302;1301;3057514;-75
2024/03/02 15:52:40;;;;;;;25.00;12.30;;;;;;;2.73;69.46;99611.24;79616;1299;3013178;-71
2024/03/02 15:55:07;;;;;;;20.50;12.10;;;;;;;2.69;69.82;99617.02;79521;1301;3013031;-73
2024/03/02 15:57:35;;;;;;;27.40;13.00;;;;;;;2.66;69.83;99620.74;78316;1301;3053999;-73
2024/03/02 16:00:04;;;;;;;19.10;11.70;;;;;;;2.66;70.17;99617.27;79401;1299;3019136;-72
2024/03/02 16:02:39;;;;;;;24.40;11.50;;;;;;;2.57;70.51;99616.47;78427;1301;3051624;-76
2024/03/02 16:05:06;;;;;;;26.40;12.30;;;;;;;2.57;70.54;99613.02;79406;1298;3018806;-76
2024/03/02 16:07:33;;;;;;;19.10;12.10;;;;;;;2.59;70.50;99611.77;79404;1298;3011856;-76
2024/03/02 16:10:04;;;;;;;23.70;12.50;;;;;;;2.54;70.70;99614.83;78235;1301;3025962;-76
2024/03/02 16:12:31;;;;;;;24.80;13.50;;;;;;;2.47;71.01;99616.70;79605;1297;3013329;-74
2024/03/02 16:14:59;;;;;;;26.00;12.10;;;;;;;2.45;71.25;99613.98;78183;1297;3026897;-75
2024/03/02 16:17:25;;;;;;;22.10;13.30;;;;;;;2.51;70.75;99614.36;79422;1301;3013337;-74
2024/03/02 16:19:53;;;;;;;19.40;11.20;;;;;;;2.51;71.02;99612.31;79385;1297;3013335;-68
2024/03/02 16:22:21;;;;;;;22.50;11.40;;;;;;;2.48;71.13;99611.17;78146;1297;3050620;-70
2024/03/02 16:24:47;;;;;;;25.30;11.60;;;;;;;2.46;71.21;99610.69;79693;1301;3019751;-74
2024/03/02 16:27:14;;;;;;;29.90;12.20;;;;;;;2.46;71.06;99613.46;79359;1299;3013016;-72
2024/03/02 16:29:42;;;;;;;24.80;12.80;;;;;;;2.45;71.24;99610.39;78206;1297;3028164;-73
2024/03/02 16:32:09;;;;;;;25.60;13.20;;;;;;;2.30;71.78;99609.02;79683;1299;3013227;-74
2024/03/02 16:34:37;;;;;;;25.50;12.40;;;;;;;2.28;72.00;99613.21;79907;1298;3011890;-73
2024/03/02 16:37:06;;;;;;;25.40;13.40;;;;;;;2.26;72.36;99611.20;78256;1301;3049236;-74
2024/03/02 16:39:33;;;;;;;25.10;12.40;;;;;;;2.28;72.20;99609.23;79532;1296;3013102;-74
2024/03/02 16:42:00;;;;;;;19.50;12.60;;;;;;;2.28;72.07;99608.04;79500;1300;3013061;-75
2024/03/02 16:44:28;;;;;;;21.80;11.70;;;;;;;2.28;71.97;99609.77;78303;1301;3052871;-75
2024/03/02 16:46:54;;;;;;;23.20;11.80;;;;;;;2.18;72.24;99609.14;79583;1300;3013242;-72
2024/03/02 16:49:21;;;;;;;24.40;12.00;;;;;;;2.05;73.17;99607.19;79402;1295;3013477;-73
2024/03/02 16:51:50;;;;;;;28.90;11.70;;;;;;;2.04;73.34;99605.31;78265;1299;3026384;-71
2024/03/02 16:54:16;;;;;;;21.70;11.20;;;;;;;2.02;73.99;99607.77;79664;1299;3012812;-72
2024/03/02 16:56:43;;;;;;;22.40;11.50;;;;;;;2.03;73.54;99609.49;79448;1300;3011718;-71
2024/03/02 16:59:11;;;;;;;21.70;11.40;;;;;;;2.00;73.72;99606.09;78289;1300;3053118;-71
2024/03/02 17:01:38;;;;;;;20.30;11.10;;;;;;;2.07;74.14;99601.95;80045;1294;3012517;-72
2024/03/02 17:04:06;;;;;;;27.00;11.10;;;;;;;2.16;73.64;99598.61;79629;1297;3011426;-70
2024/03/02 17:06:34;;;;;;;20.80;10.70;;;;;;;2.26;73.21;99603.92;78441;1297;3049007;-70
2024/03/02 17:09:01;;;;;;;21.40;10.40;;;;;;;2.29;73.00;99603.15;79695;1297;3011593;-72
2024/03/02 17:11:27;;;;;;;19.80;10.70;;;;;;;2.33;73.25;99599.78;79654;1295;3012697;-72
2024/03/02 17:13:57;;;;;;;18.70;10.90;;;;;;;2.36;72.73;99597.80;78678;1296;3026047;-72
2024/03/02 17:16:24;;;;;;;21.80;10.90;;;;;;;2.31;72.66;99598.96;79807;1292;3012837;-74
2024/03/02 17:18:53;;;;;;;18.30;11.70;;;;;;;2.37;72.75;99595.39;79331;1292;3011919;-73
2024/03/02 17:21:20;;;;;;;25.30;11.80;;;;;;;2.33;72.38;99593.90;79870;1297;3013618;-74
2024/03/02 17:23:47;;;;;;;31.30;14.50;;;;;;;2.28;72.37;99594.02;79956;1298;3011567;-72
2024/03/02 17:26:15;;;;;;;27.90;14.80;;;;;;;2.25;72.68;99589.61;79191;1292;3027329;-74
2024/03/02 17:28:41;;;;;;;31.80;16.40;;;;;;;2.21;72.73;99584.01;80161;1297;3013373;-72
2024/03/02 17:31:08;;;;;;;41.30;17.80;;;;;;;2.14;72.87;99586.41;79884;1292;3012933;-74
2024/03/02 17:33:36;;;;;;;36.80;18.80;;;;;;;2.06;73.31;99578.32;78621;1298;3026574;-75
2024/03/02 17:36:03;;;;;;;51.60;21.60;;;;;;;1.97;73.44;99578.52;79803;1292;3018561;-72
2024/03/02 17:38:31;;;;;;;58.80;29.20;;;;;;;1.74;74.68;99571.27;79745;1292;3011536;-75
2024/03/02 17:40:58;;;;;;;63.70;31.90;;;;;;;1.64;75.35;99568.06;78577;1296;3051406;-72
2024/03/02 17:43:26;;;;;;;70.40;32.70;;;;;;;1.65;75.20;99566.98;79645;1298;3013772;-74
2024/03/02 17:45:53;;;;;;;59.70;29.70;;;;;;;1.61;75.34;99567.77;79835;1296;3011850;-72
2024/03/02 17:48:22;;;;;;;48.60;24.40;;;;;;;1.34;76.25;99570.59;78542;1297;3050840;-73
2024/03/02 17:50:49;;;;;;;50.10;23.00;;;;;;;1.25;76.72;99566.98;79657;1297;3013069;-72
2024/03/02 17:53:16;;;;;;;49.20;23.70;;;;;;;1.19;76.64;99565.23;79473;1298;3012774;-73
2024/03/02 17:55:44;;;;;;;47.40;23.90;;;;;;;1.16;77.34;99560.45;78189;1298;3049072;-74
2024/03/02 17:58:10;;;;;;;48.50;22.60;;;;;;;1.14;77.15;99559.10;79716;1297;3018152;-75
2024/03/02 18:00:37;;;;;;;48.40;22.50;;;;;;;1.13;77.49;99555.68;79439;1298;3013427;-76
2024/03/02 18:03:07;;;;;;;44.10;20.70;;;;;;;1.13;77.27;99552.39;78508;1300;3028239;-73
2024/03/02 18:05:36;;;;;;;45.00;20.70;;;;;;;1.03;77.76;99553.29;79718;1300;3013728;-77
2024/03/02 18:08:05;;;;;;;60.60;23.00;;;;;;;1.01;78.03;99546.95;78404;1297;3026223;-75
2024/03/02 18:10:33;;;;;;;44.70;22.00;;;;;;;1.07;77.66;99546.65;79485;1298;3013099;-74
2024/03/02 18:13:00;;;;;;;44.60;20.40;;;;;;;1.09;77.85;99539.36;79569;1298;3011293;-71
2024/03/02 18:15:28;;;;;;;43.50;20.80;;;;;;;1.02;77.48;99537.95;78281;1300;3051285;-73
2024/03/02 18:17:55;;;;;;;46.90;20.70;;;;;;;0.96;78.26;99533.25;79546;1297;3013662;-72
2024/03/02 18:20:21;;;;;;;50.70;20.70;;;;;;;0.98;78.44;99529.94;79838;1296;3012810;-75
2024/03/02 18:22:49;;;;;;;44.80;18.40;;;;;;;0.93;78.67;99532.10;78467;1300;3049752;-76
2024/03/02 18:25:16;;;;;;;40.10;19.70;;;;;;;0.80;79.07;99530.30;79685;1299;3012995;-75
2024/03/02 18:27:43;;;;;;;35.50;16.10;;;;;;;0.80;79.58;99529.77;79513;1300;3011653;-73
2024/03/02 18:30:11;;;;;;;37.70;16.30;;;;;;;1.47;78.00;99527.16;78270;1299;3026416;-76
2024/03/02 18:32:38;;;;;;;40.10;17.40;;;;;;;1.89;75.74;99520.67;79494;1296;3012700;-76
2024/03/02 18:35:06;;;;;;;36.10;18.30;;;;;;;2.26;74.19;99525.99;79571;1298;3011617;-76
2024/03/02 18:37:37;;;;;;;43.50;17.50;;;;;;;2.25;73.46;99518.05;78394;1298;3048772;-73
2024/03/02 18:40:05;;;;;;;35.30;18.40;;;;;;;1.90;73.89;99515.46;79530;1296;3012443;-76
2024/03/02 18:42:33;;;;;;;38.60;18.60;;;;;;;1.79;74.41;99515.89;78377;1302;3029650;-76
2024/03/02 18:45:04;;;;;;;44.40;19.80;;;;;;;1.70;74.80;99519.23;79639;1296;3012914;-73
2024/03/02 18:47:34;;;;;;;42.80;19.60;;;;;;;1.52;74.99;99515.30;78315;1297;3069100;-75
2024/03/02 18:50:05;;;;;;;38.70;19.50;;;;;;;1.46;75.28;99517.68;79515;1296;3013328;-72
2024/03/02 18:52:35;;;;;;;43.20;19.90;;;;;;;1.30;76.13;99511.48;78347;1296;3054904;-75
2024/03/02 18:55:03;;;;;;;40.90;20.10;;;;;;;1.40;75.60;99509.71;79599;1298;3011569;-75
2024/03/02 18:57:31;;;;;;;42.20;19.70;;;;;;;1.33;75.35;99504.70;78386;1298;3026698;-75
2024/03/02 18:59:58;;;;;;;40.70;20.60;;;;;;;1.30;75.79;99502.69;79459;1301;3013634;-73
2024/03/02 19:02:24;;;;;;;43.70;20.00;;;;;;;1.21;76.15;99506.16;79603;1300;3012904;-74
2024/03/02 19:04:52;;;;;;;45.90;21.80;;;;;;;1.31;75.41;99503.53;78483;1300;3026042;-76
2024/03/02 19:07:19;;;;;;;41.90;19.90;;;;;;;1.30;75.39;99500.10;79716;1297;3018858;-73
2024/03/02 19:09:46;;;;;;;45.70;21.00;;;;;;;1.33;75.31;99499.16;79557;1298;3013392;-73
2024/03/02 19:12:14;;;;;;;45.70;21.20;;;;;;;1.34;75.13;99501.74;78296;1296;3026653;-75
2024/03/02 19:14:41;;;;;;;45.80;19.90;;;;;;;1.30;75.31;99496.30;79653;1300;3013618;-74
2024/03/02 19:17:07;;;;;;;40.70;20.50;;;;;;;1.34;75.41;99493.27;79515;1301;3011802;-72
2024/03/02 19:19:37;;;;;;;39.00;20.10;;;;;;;1.31;75.35;99495.06;78235;1300;3028472;-73
2024/03/02 19:22:04;;;;;;;44.80;17.70;;;;;;;1.25;75.27;99493.66;79657;1299;3011827;-76
2024/03/02 19:24:36;;;;;;;30.60;15.90;;;;;;;1.33;74.98;99497.62;79464;1296;3011647;-76
2024/03/02 19:27:04;;;;;;;33.60;16.40;;;;;;;1.46;74.56;99496.11;78350;1299;3053379;-75
2024/03/02 19:29:31;;;;;;;34.30;15.30;;;;;;;1.56;73.83;99497.98;79623;1300;3011325;-75
2024/03/02 19:31:58;;;;;;;32.50;15.30;;;;;;;1.55;73.66;99499.20;79516;1300;3011789;-74
2024/03/02 19:34:26;;;;;;;33.00;15.70;;;;;;;1.63;73.29;99502.28;78319;1297;3069372;-74
2024/03/02 19:36:55;;;;;;;24.10;12.90;;;;;;;1.62;73.16;99495.58;79568;1297;3013649;-73
2024/03/02 19:39:26;;;;;;;40.40;14.20;;;;;;;1.66;72.55;99496.34;79579;1297;3011605;-75
2024/03/02 19:41:54;;;;;;;25.80;13.00;;;;;;;1.70;72.55;99491.59;78397;1298;3052470;-72
2024/03/02 19:44:23;;;;;;;28.90;12.80;;;;;;;1.74;72.28;99499.09;79484;1300;3012916;-71
2024/03/02 19:46:50;;;;;;;29.20;12.50;;;;;;;1.84;71.90;99498.17;79768;1300;3021031;-74
2024/03/02 19:49:17;;;;;;;28.70;11.30;;;;;;;1.93;71.06;99496.58;78357;1301;3068834;-72
2024/03/02 19:51:45;;;;;;;28.80;11.50;;;;;;;1.88;70.62;99495.13;79467;1298;3021362;-76
2024/03/02 19:54:12;;;;;;;30.10;11.60;;;;;;;1.94;70.00;99493.43;79474;1297;3012388;-76
2024/03/02 19:56:40;;;;;;;22.60;10.70;;;;;;;1.99;69.82;99495.20;78335;1300;3054451;-76
2024/03/02 19:59:10;;;;;;;23.20;10.90;;;;;;;2.04;69.62;99486.95;79438;1297;3013672;-75
2024/03/02 20:01:39;;;;;;;21.80;10.20;;;;;;;1.98;69.15;99480.71;78341;1299;3052155;-76
2024/03/02 20:04:06;;;;;;;22.80;10.30;;;;;;;2.09;68.96;99477.50;79573;1298;3011496;-76
2024/03/02 20:06:33;;;;;;;21.20;9.70;;;;;;;2.13;68.48;99477.40;79497;1298;3011812;-76
2024/03/02 20:09:00;;;;;;;25.50;11.20;;;;;;;2.13;68.40;99477.55;78308;1300;3049006;-74
2024/03/02 20:11:31;;;;;;;24.30;12.00;;;;;;;2.18;68.63;99474.50;79455;1298;3013442;-76
2024/03/02 20:13:59;;;;;;;24.80;10.80;;;;;;;2.12;68.37;99474.30;78423;1297;3053540;-75
2024/03/02 20:16:26;;;;;;;26.70;10.60;;;;;;;2.10;68.41;99471.59;79476;1298;3013313;-76
2024/03/02 20:18:52;;;;;;;28.90;12.10;;;;;;;2.09;68.23;99475.77;79648;1297;3011754;-76
2024/03/02 20:21:20;;;;;;;27.30;11.90;;;;;;;2.12;68.21;99473.79;78170;1297;3028049;-77
2024/03/02 20:23:47;;;;;;;22.90;11.20;;;;;;;2.09;68.25;99474.23;79508;1297;3014832;-74
2024/03/02 20:26:14;;;;;;;29.10;13.00;;;;;;;2.13;67.84;99472.88;79512;1300;3013046;-75
2024/03/02 20:28:43;;;;;;;31.60;11.80;;;;;;;2.09;67.89;99473.35;78353;1300;3026510;-74
2024/03/02 20:31:11;;;;;;;30.60;12.60;;;;;;;2.17;67.97;99468.47;79534;1300;3012827;-74
2024/03/02 20:33:37;;;;;;;21.30;11.10;;;;;;;2.21;67.61;99466.13;79385;1301;3011603;-75
2024/03/02 20:36:06;;;;;;;21.30;11.80;;;;;;;2.17;67.51;99465.36;78406;1296;3055845;-74
2024/03/02 20:38:33;;;;;;;26.60;12.70;;;;;;;2.11;67.44;99461.20;79526;1297;3013261;-75
2024/03/02 20:40:59;;;;;;;26.40;11.50;;;;;;;2.11;67.65;99462.94;79474;1297;3011537;-75
2024/03/02 20:43:27;;;;;;;25.90;12.30;;;;;;;2.10;67.55;99464.52;78189;1300;3052622;-77
2024/03/02 20:45:54;;;;;;;26.50;11.80;;;;;;;1.99;67.71;99463.24;79484;1300;3011926;-75
2024/03/02 20:48:20;;;;;;;24.60;11.40;;;;;;;2.03;67.51;99462.27;79496;1296;3011612;-74
2024/03/02 20:50:49;;;;;;;24.80;10.60;;;;;;;2.15;67.78;99462.98;78251;1298;3026360;-76
2024/03/02 20:53:16;;;;;;;27.50;10.80;;;;;;;2.21;67.13;99461.30;79418;1296;3012953;-72
2024/03/02 20:55:43;;;;;;;25.40;10.60;;;;;;;2.11;67.03;99460.87;79436;1297;3011604;-76
2024/03/02 20:58:11;;;;;;;28.00;11.40;;;;;;;2.07;67.09;99462.33;78403;1300;3051885;-78
2024/03/02 21:00:37;;;;;;;22.90;10.60;;;;;;;2.07;67.31;99462.52;79591;1296;3018317;-73
2024/03/02 21:03:04;;;;;;;22.20;10.50;;;;;;;2.10;67.42;99463.29;79371;1296;3011754;-75
2024/03/02 21:05:33;;;;;;;20.90;9.70;;;;;;;2.11;67.00;99461.56;78451;1296;3054966;-77
2024/03/02 21:08:01;;;;;;;21.40;9.20;;;;;;;2.16;66.95;99460.90;79457;1301;3013295;-75
2024/03/02 21:10:27;;;;;;;24.70;9.30;;;;;;;2.22;67.09;99463.34;79602;1298;3011445;-75
2024/03/02 21:12:58;;;;;;;31.20;9.80;;;;;;;2.29;66.49;99465.73;78362;1301;3053544;-71
2024/03/02 21:15:26;;;;;;;19.70;8.20;;;;;;;2.23;66.20;99464.16;79555;1300;3013386;-72
2024/03/02 21:17:54;;;;;;;23.00;10.20;;;;;;;2.27;66.22;99467.69;78375;1301;3025880;-71
2024/03/02 21:20:20;;;;;;;18.10;8.00;;;;;;;2.28;66.25;99464.73;79513;1297;3013479;-77
2024/03/02 21:22:51;;;;;;;19.50;8.80;;;;;;;2.35;66.16;99467.48;79509;1300;3011415;-72
2024/03/02 21:25:20;;;;;;;17.00;8.10;;;;;;;2.40;65.95;99464.08;78180;1300;3053750;-75
2024/03/02 21:27:49;;;;;;;23.10;8.90;;;;;;;2.48;65.86;99464.21;79717;1300;3013493;-75
2024/03/02 21:30:19;;;;;;;19.30;7.70;;;;;;;2.43;65.51;99464.15;79010;1297;3011829;-75
2024/03/02 21:32:48;;;;;;;20.20;7.20;;;;;;;2.37;65.70;99465.70;79626;1294;3013185;-74
2024/03/02 21:35:17;;;;;;;18.90;7.80;;;;;;;2.35;65.77;99459.88;79105;1294;3012137;-71
2024/03/02 21:37:43;;;;;;;15.60;7.60;;;;;;;2.33;65.63;99459.75;79701;1294;3021265;-71
2024/03/02 21:40:11;;;;;;;22.20;7.90;;;;;;;2.36;65.73;99456.56;79728;1298;3011912;-72
2024/03/02 21:42:39;;;;;;;19.70;7.50;;;;;;;2.38;65.42;99454.97;79771;1294;3052392;-74
2024/03/02 21:45:06;;;;;;;17.80;7.00;;;;;;;2.35;65.49;99454.70;79687;1301;3012788;-70
2024/03/02 21:47:34;;;;;;;12.80;6.20;;;;;;;2.32;65.67;99453.74;79959;1294;3011578;-72
2024/03/02 21:50:03;;;;;;;13.40;5.80;;;;;;;2.36;65.72;99454.99;78521;1294;3068800;-69
2024/03/02 21:52:31;;;;;;;15.90;6.10;;;;;;;2.32;65.68;99455.11;79734;1295;3011648;-74
2024/03/02 21:54:57;;;;;;;13.40;6.60;;;;;;;2.27;65.69;99457.85;79792;1295;3011496;-71
2024/03/02 21:57:25;;;;;;;13.80;6.40;;;;;;;2.24;65.66;99451.71;78351;1295;3052088;-71
2024/03/02 21:59:52;;;;;;;14.40;6.70;;;;;;;2.22;66.08;99450.38;79624;1297;3020603;-73
2024/03/02 22:02:18;;;;;;;14.30;6.50;;;;;;;2.13;66.08;99448.18;79702;1300;3011772;-72
2024/03/02 22:04:46;;;;;;;17.10;6.50;;;;;;;2.09;66.34;99445.20;78498;1300;3029787;-69
2024/03/02 22:07:13;;;;;;;12.00;5.30;;;;;;;1.99;66.44;99447.00;79665;1295;3013076;-73
2024/03/02 22:09:39;;;;;;;13.10;6.20;;;;;;;2.09;66.19;99442.92;79640;1300;3013391;-72
2024/03/02 22:12:07;;;;;;;16.40;6.00;;;;;;;2.06;65.79;99440.95;78509;1300;3026756;-72
2024/03/02 22:14:35;;;;;;;13.60;5.50;;;;;;;2.08;65.93;99441.77;79798;1295;3012810;-73
2024/03/02 22:17:01;;;;;;;15.20;5.50;;;;;;;2.21;65.85;99436.23;79597;1300;3011801;-72
2024/03/02 22:19:30;;;;;;;14.40;5.70;;;;;;;2.17;65.80;99440.48;78426;1298;3069230;-71
2024/03/02 22:21:57;;;;;;;14.50;5.60;;;;;;;2.17;65.63;99439.98;79667;1294;3019068;-73
2024/03/02 22:24:24;;;;;;;12.80;5.50;;;;;;;2.19;65.46;99438.36;79532;1299;3013171;-73
2024/03/02 22:26:52;;;;;;;13.90;5.60;;;;;;;2.25;65.33;99440.98;78342;1295;3026256;-74
2024/03/02 22:29:19;;;;;;;11.80;4.80;;;;;;;2.18;65.23;99438.19;79622;1300;3013558;-70
2024/03/02 22:31:45;;;;;;;20.30;5.20;;;;;;;2.24;65.10;99435.48;79604;1294;3011804;-71
2024/03/02 22:34:13;;;;;;;12.20;5.20;;;;;;;2.23;64.83;99436.33;78385;1296;3025373;-73
2024/03/02 22:36:40;;;;;;;13.40;5.10;;;;;;;2.27;64.78;99432.94;79703;1294;3013118;-72
2024/03/02 22:39:06;;;;;;;13.00;5.10;;;;;;;2.29;64.52;99439.99;79661;1301;3011621;-72
2024/03/02 22:41:34;;;;;;;12.00;5.20;;;;;;;2.24;64.48;99442.02;78311;1295;3027060;-72
2024/03/02 22:44:01;;;;;;;23.50;5.50;;;;;;;2.24;64.71;99444.96;79663;1298;3013777;-72
2024/03/02 22:46:27;;;;;;;17.20;6.20;;;;;;;2.15;64.78;99450.20;79717;1299;3011702;-71
2024/03/02 22:48:55;;;;;;;16.60;5.00;;;;;;;2.27;64.32;99450.41;78343;1295;3024972;-72
2024/03/02 22:51:23;;;;;;;12.50;5.20;;;;;;;2.26;64.24;99450.62;79614;1295;3014083;-72